sensor_id;sensor_type;location;lat;lon;timestamp;pressure;altitude;pressure_sealevel;temperature;humidity
59608;BME280;45426;44.726;10.390;2023-06-14T00:02:11;100034.75;;;19.12;100.00
59608;BME280;45426;44.726;10.390;2023-06-14T00:04:37;100040.63;;;19.22;100.00
59608;BME280;45426;44.726;10.390;2023-06-14T00:07:05;100027.91;;;19.46;100.00
59608;BME280;45426;44.726;10.390;2023-06-14T00:09:33;100030.06;;;19.02;100.00
59608;BME280;45426;44.726;10.390;2023-06-14T00:11:58;100043.38;;;19.22;100.00
59608;BME280;45426;44.726;10.390;2023-06-14T00:14:24;100040.31;;;18.98;100.00
59608;BME280;45426;44.726;10.390;2023-06-14T00:16:49;100043.50;;;18.93;100.00
59608;BME280;45426;44.726;10.390;2023-06-14T00:19:17;100038.03;;;18.82;100.00
59608;BME280;45426;44.726;10.390;2023-06-14T00:21:43;100048.28;;;18.53;100.00
59608;BME280;45426;44.726;10.390;2023-06-14T00:24:08;100043.97;;;18.16;100.00
59608;BME280;45426;44.726;10.390;2023-06-14T00:26:34;100046.72;;;18.52;100.00
59608;BME280;45426;44.726;10.390;2023-06-14T00:28:59;100036.41;;;18.77;100.00
59608;BME280;45426;44.726;10.390;2023-06-14T00:31:25;100029.00;;;18.63;100.00
59608;BME280;45426;44.726;10.390;2023-06-14T00:33:50;100034.56;;;18.35;100.00
59608;BME280;45426;44.726;10.390;2023-06-14T00:36:16;100027.09;;;18.32;100.00
59608;BME280;45426;44.726;10.390;2023-06-14T00:38:41;100019.16;;;18.62;100.00
59608;BME280;45426;44.726;10.390;2023-06-14T00:41:07;100025.13;;;18.29;100.00
59608;BME280;45426;44.726;10.390;2023-06-14T00:43:32;100023.94;;;18.08;100.00
59608;BME280;45426;44.726;10.390;2023-06-14T00:46:00;100023.94;;;18.01;100.00
59608;BME280;45426;44.726;10.390;2023-06-14T00:48:25;100030.19;;;17.73;100.00
59608;BME280;45426;44.726;10.390;2023-06-14T00:50:51;100021.16;;;17.83;100.00
59608;BME280;45426;44.726;10.390;2023-06-14T00:53:18;100031.03;;;17.98;100.00
59608;BME280;45426;44.726;10.390;2023-06-14T00:55:44;100020.03;;;18.02;100.00
59608;BME280;45426;44.726;10.390;2023-06-14T00:58:10;100015.31;;;18.20;100.00
59608;BME280;45426;44.726;10.390;2023-06-14T01:00:36;100025.47;;;17.80;100.00
59608;BME280;45426;44.726;10.390;2023-06-14T01:03:01;100019.97;;;17.80;100.00
59608;BME280;45426;44.726;10.390;2023-06-14T01:05:27;100009.44;;;18.15;100.00
59608;BME280;45426;44.726;10.390;2023-06-14T01:08:11;100007.84;;;18.17;100.00
59608;BME280;45426;44.726;10.390;2023-06-14T01:11:16;100006.69;;;18.18;100.00
59608;BME280;45426;44.726;10.390;2023-06-14T01:13:43;99993.22;;;18.63;100.00
59608;BME280;45426;44.726;10.390;2023-06-14T01:16:11;99994.34;;;18.91;100.00
59608;BME280;45426;44.726;10.390;2023-06-14T01:18:37;99991.72;;;18.48;100.00
59608;BME280;45426;44.726;10.390;2023-06-14T01:21:02;99994.03;;;18.57;100.00
59608;BME280;45426;44.726;10.390;2023-06-14T01:23:32;99990.84;;;18.84;100.00
59608;BME280;45426;44.726;10.390;2023-06-14T01:25:58;99994.78;;;18.83;100.00
59608;BME280;45426;44.726;10.390;2023-06-14T01:28:26;99987.72;;;18.81;100.00
59608;BME280;45426;44.726;10.390;2023-06-14T01:30:59;99985.84;;;18.21;100.00
59608;BME280;45426;44.726;10.390;2023-06-14T01:33:27;99987.81;;;17.99;100.00
59608;BME280;45426;44.726;10.390;2023-06-14T01:35:54;99974.75;;;18.68;100.00
59608;BME280;45426;44.726;10.390;2023-06-14T01:38:23;99983.00;;;18.64;100.00
59608;BME280;45426;44.726;10.390;2023-06-14T01:40:50;99975.09;;;18.77;100.00
59608;BME280;45426;44.726;10.390;2023-06-14T01:43:18;99976.06;;;18.16;100.00
59608;BME280;45426;44.726;10.390;2023-06-14T01:45:45;99979.56;;;18.17;100.00
59608;BME280;45426;44.726;10.390;2023-06-14T01:48:12;99983.91;;;17.96;100.00
59608;BME280;45426;44.726;10.390;2023-06-14T01:50:38;99977.59;;;17.78;100.00
59608;BME280;45426;44.726;10.390;2023-06-14T01:53:07;99975.66;;;18.03;100.00
59608;BME280;45426;44.726;10.390;2023-06-14T01:55:33;99965.84;;;18.17;100.00
59608;BME280;45426;44.726;10.390;2023-06-14T01:58:02;99971.75;;;17.90;100.00
59608;BME280;45426;44.726;10.390;2023-06-14T02:00:28;99970.13;;;17.75;100.00
59608;BME280;45426;44.726;10.390;2023-06-14T02:02:53;99972.09;;;17.81;100.00
59608;BME280;45426;44.726;10.390;2023-06-14T02:05:19;99977.19;;;17.65;100.00
59608;BME280;45426;44.726;10.390;2023-06-14T02:07:45;99987.78;;;17.41;100.00
59608;BME280;45426;44.726;10.390;2023-06-14T02:10:11;99978.72;;;17.44;100.00
59608;BME280;45426;44.726;10.390;2023-06-14T02:12:36;99973.22;;;17.37;100.00
59608;BME280;45426;44.726;10.390;2023-06-14T02:15:02;99967.38;;;17.57;100.00
59608;BME280;45426;44.726;10.390;2023-06-14T02:17:29;99954.44;;;18.08;100.00
59608;BME280;45426;44.726;10.390;2023-06-14T02:19:54;99972.09;;;17.67;100.00
59608;BME280;45426;44.726;10.390;2023-06-14T02:22:20;99972.88;;;17.60;100.00
59608;BME280;45426;44.726;10.390;2023-06-14T02:24:47;99981.47;;;17.30;100.00
59608;BME280;45426;44.726;10.390;2023-06-14T02:27:12;99974.34;;;17.15;100.00
59608;BME280;45426;44.726;10.390;2023-06-14T02:29:38;99973.63;;;17.36;100.00
59608;BME280;45426;44.726;10.390;2023-06-14T02:32:04;99972.41;;;17.19;100.00
59608;BME280;45426;44.726;10.390;2023-06-14T02:34:32;99970.50;;;17.48;100.00
59608;BME280;45426;44.726;10.390;2023-06-14T02:36:58;99966.56;;;17.42;100.00
59608;BME280;45426;44.726;10.390;2023-06-14T02:39:23;99959.19;;;18.00;100.00
59608;BME280;45426;44.726;10.390;2023-06-14T02:41:49;99957.19;;;17.75;100.00
59608;BME280;45426;44.726;10.390;2023-06-14T02:44:17;99961.88;;;17.50;100.00
59608;BME280;45426;44.726;10.390;2023-06-14T02:46:43;99959.91;;;17.50;100.00
59608;BME280;45426;44.726;10.390;2023-06-14T02:49:09;99958.72;;;17.44;100.00
59608;BME280;45426;44.726;10.390;2023-06-14T02:51:35;99966.94;;;17.30;100.00
59608;BME280;45426;44.726;10.390;2023-06-14T02:54:00;99964.16;;;17.15;100.00
59608;BME280;45426;44.726;10.390;2023-06-14T02:56:26;99970.53;;;17.59;100.00
59608;BME280;45426;44.726;10.390;2023-06-14T02:58:52;99974.34;;;17.11;100.00
59608;BME280;45426;44.726;10.390;2023-06-14T03:01:18;99962.63;;;17.29;100.00
59608;BME280;45426;44.726;10.390;2023-06-14T03:03:46;99961.00;;;17.17;100.00
59608;BME280;45426;44.726;10.390;2023-06-14T03:06:11;99956.44;;;17.89;100.00
59608;BME280;45426;44.726;10.390;2023-06-14T03:08:40;99955.66;;;17.96;100.00
59608;BME280;45426;44.726;10.390;2023-06-14T03:11:07;99966.63;;;17.92;100.00
59608;BME280;45426;44.726;10.390;2023-06-14T03:13:33;99959.56;;;18.06;100.00
59608;BME280;45426;44.726;10.390;2023-06-14T03:15:58;99961.53;;;17.94;100.00
59608;BME280;45426;44.726;10.390;2023-06-14T03:18:24;99956.44;;;17.93;100.00
59608;BME280;45426;44.726;10.390;2023-06-14T03:20:50;99961.91;;;17.85;100.00
59608;BME280;45426;44.726;10.390;2023-06-14T03:23:16;99963.50;;;17.87;100.00
59608;BME280;45426;44.726;10.390;2023-06-14T03:25:41;99966.50;;;17.10;100.00
59608;BME280;45426;44.726;10.390;2023-06-14T03:28:07;99979.53;;;16.46;100.00
59608;BME280;45426;44.726;10.390;2023-06-14T03:30:33;99982.31;;;16.54;100.00
59608;BME280;45426;44.726;10.390;2023-06-14T03:32:58;99972.84;;;16.40;100.00
59608;BME280;45426;44.726;10.390;2023-06-14T03:35:27;99969.56;;;16.90;100.00
59608;BME280;45426;44.726;10.390;2023-06-14T03:37:52;99963.06;;;17.59;100.00
59608;BME280;45426;44.726;10.390;2023-06-14T03:40:19;99980.31;;;17.49;100.00
59608;BME280;45426;44.726;10.390;2023-06-14T03:42:45;99969.72;;;17.48;100.00
59608;BME280;45426;44.726;10.390;2023-06-14T03:45:11;99972.88;;;17.64;100.00
59608;BME280;45426;44.726;10.390;2023-06-14T03:47:36;99970.88;;;17.50;100.00
59608;BME280;45426;44.726;10.390;2023-06-14T03:50:03;99967.81;;;17.91;100.00
59608;BME280;45426;44.726;10.390;2023-06-14T03:52:29;99960.34;;;18.13;100.00
59608;BME280;45426;44.726;10.390;2023-06-14T03:54:54;99969.34;;;17.49;100.00
59608;BME280;45426;44.726;10.390;2023-06-14T03:57:21;99964.25;;;17.73;100.00
59608;BME280;45426;44.726;10.390;2023-06-14T03:59:47;99956.81;;;17.98;100.00
59608;BME280;45426;44.726;10.390;2023-06-14T04:02:12;99966.66;;;17.99;100.00
59608;BME280;45426;44.726;10.390;2023-06-14T04:04:41;99960.75;;;17.90;100.00
59608;BME280;45426;44.726;10.390;2023-06-14T04:07:12;99967.38;;;18.18;100.00
59608;BME280;45426;44.726;10.390;2023-06-14T04:09:38;99973.69;;;18.04;100.00
59608;BME280;45426;44.726;10.390;2023-06-14T04:12:05;99973.63;;;18.40;100.00
59608;BME280;45426;44.726;10.390;2023-06-14T04:14:31;99980.75;;;18.19;100.00
59608;BME280;45426;44.726;10.390;2023-06-14T04:16:58;99976.75;;;18.46;100.00
59608;BME280;45426;44.726;10.390;2023-06-14T04:19:23;99985.47;;;18.19;100.00
59608;BME280;45426;44.726;10.390;2023-06-14T04:21:49;99980.34;;;18.14;100.00
59608;BME280;45426;44.726;10.390;2023-06-14T04:24:14;99978.03;;;17.98;100.00
59608;BME280;45426;44.726;10.390;2023-06-14T04:26:41;99989.00;;;17.87;100.00
59608;BME280;45426;44.726;10.390;2023-06-14T04:29:10;99983.09;;;18.35;100.00
59608;BME280;45426;44.726;10.390;2023-06-14T04:31:39;99986.66;;;17.93;100.00
59608;BME280;45426;44.726;10.390;2023-06-14T04:34:05;99991.00;;;17.94;100.00
59608;BME280;45426;44.726;10.390;2023-06-14T04:36:32;100000.41;;;18.11;100.00
59608;BME280;45426;44.726;10.390;2023-06-14T04:39:00;99994.91;;;18.11;100.00
59608;BME280;45426;44.726;10.390;2023-06-14T04:41:25;99995.53;;;18.87;100.00
59608;BME280;45426;44.726;10.390;2023-06-14T04:43:56;99999.47;;;18.78;100.00
59608;BME280;45426;44.726;10.390;2023-06-14T04:46:22;99996.78;;;18.50;100.00
59608;BME280;45426;44.726;10.390;2023-06-14T04:48:47;100001.19;;;18.22;100.00
59608;BME280;45426;44.726;10.390;2023-06-14T04:51:15;100000.38;;;18.21;100.00
59608;BME280;45426;44.726;10.390;2023-06-14T04:53:41;99994.84;;;18.47;100.00
59608;BME280;45426;44.726;10.390;2023-06-14T04:56:09;100000.59;;;19.06;100.00
59608;BME280;45426;44.726;10.390;2023-06-14T04:58:35;99998.34;;;18.58;100.00
59608;BME280;45426;44.726;10.390;2023-06-14T05:01:00;100005.78;;;18.68;100.00
59608;BME280;45426;44.726;10.390;2023-06-14T05:03:27;100001.78;;;18.98;100.00
59608;BME280;45426;44.726;10.390;2023-06-14T05:05:52;100012.13;;;18.43;100.00
59608;BME280;45426;44.726;10.390;2023-06-14T05:08:19;100016.03;;;18.50;100.00
59608;BME280;45426;44.726;10.390;2023-06-14T05:10:45;100014.50;;;18.41;100.00
59608;BME280;45426;44.726;10.390;2023-06-14T05:13:10;100012.03;;;18.79;100.00
59608;BME280;45426;44.726;10.390;2023-06-14T05:15:36;100010.91;;;18.80;100.00
59608;BME280;45426;44.726;10.390;2023-06-14T05:18:02;100008.50;;;18.93;100.00
59608;BME280;45426;44.726;10.390;2023-06-14T05:20:28;100020.72;;;18.71;100.00
59608;BME280;45426;44.726;10.390;2023-06-14T05:22:54;100011.78;;;19.48;100.00
59608;BME280;45426;44.726;10.390;2023-06-14T05:25:20;100010.31;;;19.29;100.00
59608;BME280;45426;44.726;10.390;2023-06-14T05:27:46;100002.50;;;19.16;100.00
59608;BME280;45426;44.726;10.390;2023-06-14T05:30:13;100000.78;;;19.40;100.00
59608;BME280;45426;44.726;10.390;2023-06-14T05:32:39;100004.75;;;19.36;100.00
59608;BME280;45426;44.726;10.390;2023-06-14T05:35:05;100004.63;;;19.57;100.00
59608;BME280;45426;44.726;10.390;2023-06-14T05:37:31;100000.84;;;19.30;100.00
59608;BME280;45426;44.726;10.390;2023-06-14T05:39:57;99998.25;;;19.71;100.00
59608;BME280;45426;44.726;10.390;2023-06-14T05:42:22;99994.19;;;19.90;100.00
59608;BME280;45426;44.726;10.390;2023-06-14T05:44:48;99992.88;;;20.44;100.00
59608;BME280;45426;44.726;10.390;2023-06-14T05:47:13;99994.94;;;20.36;100.00
59608;BME280;45426;44.726;10.390;2023-06-14T05:49:38;99986.25;;;20.75;100.00
59608;BME280;45426;44.726;10.390;2023-06-14T05:52:04;99990.69;;;21.00;100.00
59608;BME280;45426;44.726;10.390;2023-06-14T05:54:30;99986.66;;;21.08;100.00
59608;BME280;45426;44.726;10.390;2023-06-14T05:56:55;99988.38;;;21.26;100.00
59608;BME280;45426;44.726;10.390;2023-06-14T05:59:26;99992.72;;;21.27;100.00
59608;BME280;45426;44.726;10.390;2023-06-14T06:01:51;99991.25;;;21.19;100.00
59608;BME280;45426;44.726;10.390;2023-06-14T06:04:16;99986.19;;;21.44;100.00
59608;BME280;45426;44.726;10.390;2023-06-14T06:06:42;99997.91;;;22.03;100.00
59608;BME280;45426;44.726;10.390;2023-06-14T06:09:07;99992.84;;;22.21;100.00
59608;BME280;45426;44.726;10.390;2023-06-14T06:11:33;99999.00;;;22.33;100.00
59608;BME280;45426;44.726;10.390;2023-06-14T06:13:58;99989.66;;;22.46;100.00
59608;BME280;45426;44.726;10.390;2023-06-14T06:16:24;99992.84;;;22.21;100.00
59608;BME280;45426;44.726;10.390;2023-06-14T06:18:49;99997.78;;;22.10;100.00
59608;BME280;45426;44.726;10.390;2023-06-14T06:21:15;99995.56;;;22.25;100.00
59608;BME280;45426;44.726;10.390;2023-06-14T06:23:41;99998.50;;;22.14;100.00
59608;BME280;45426;44.726;10.390;2023-06-14T06:26:06;99989.78;;;22.59;100.00
59608;BME280;45426;44.726;10.390;2023-06-14T06:28:32;99996.47;;;22.42;100.00
59608;BME280;45426;44.726;10.390;2023-06-14T06:30:57;99998.97;;;22.56;100.00
59608;BME280;45426;44.726;10.390;2023-06-14T06:33:22;100003.22;;;22.81;100.00
59608;BME280;45426;44.726;10.390;2023-06-14T06:35:48;100005.97;;;22.41;100.00
59608;BME280;45426;44.726;10.390;2023-06-14T06:38:14;100008.81;;;22.57;100.00
59608;BME280;45426;44.726;10.390;2023-06-14T06:40:39;100013.00;;;22.45;100.00
59608;BME280;45426;44.726;10.390;2023-06-14T06:43:05;100022.00;;;22.29;100.00
59608;BME280;45426;44.726;10.390;2023-06-14T06:45:30;100024.38;;;22.27;100.00
59608;BME280;45426;44.726;10.390;2023-06-14T06:47:56;100028.25;;;22.34;100.00
59608;BME280;45426;44.726;10.390;2023-06-14T06:50:21;100018.22;;;22.16;100.00
59608;BME280;45426;44.726;10.390;2023-06-14T06:52:50;100041.38;;;22.02;100.00
59608;BME280;45426;44.726;10.390;2023-06-14T06:55:16;100036.28;;;22.24;100.00
59608;BME280;45426;44.726;10.390;2023-06-14T06:57:43;100040.25;;;22.23;100.00
59608;BME280;45426;44.726;10.390;2023-06-14T07:00:09;100036.25;;;22.01;100.00
59608;BME280;45426;44.726;10.390;2023-06-14T07:02:35;100040.88;;;22.35;100.00
59608;BME280;45426;44.726;10.390;2023-06-14T07:05:01;100042.97;;;22.27;100.00
59608;BME280;45426;44.726;10.390;2023-06-14T07:07:26;100037.66;;;21.89;100.00
59608;BME280;45426;44.726;10.390;2023-06-14T07:09:52;100037.31;;;22.34;100.00
59608;BME280;45426;44.726;10.390;2023-06-14T07:12:17;100042.16;;;22.03;100.00
59608;BME280;45426;44.726;10.390;2023-06-14T07:14:43;100030.56;;;22.79;100.00
59608;BME280;45426;44.726;10.390;2023-06-14T07:17:09;100038.91;;;22.55;100.00
59608;BME280;45426;44.726;10.390;2023-06-14T07:19:34;100031.78;;;22.98;100.00
59608;BME280;45426;44.726;10.390;2023-06-14T07:22:00;100033.34;;;23.19;100.00
59608;BME280;45426;44.726;10.390;2023-06-14T07:24:25;100031.91;;;22.91;100.00
59608;BME280;45426;44.726;10.390;2023-06-14T07:26:51;100035.75;;;23.17;100.00
59608;BME280;45426;44.726;10.390;2023-06-14T07:29:16;100041.09;;;23.08;100.00
59608;BME280;45426;44.726;10.390;2023-06-14T07:31:42;100036.97;;;23.52;100.00
59608;BME280;45426;44.726;10.390;2023-06-14T07:34:08;100035.78;;;23.70;100.00
59608;BME280;45426;44.726;10.390;2023-06-14T07:36:33;100041.09;;;23.28;100.00
59608;BME280;45426;44.726;10.390;2023-06-14T07:38:58;100037.63;;;23.23;100.00
59608;BME280;45426;44.726;10.390;2023-06-14T07:41:24;100053.03;;;22.41;100.00
59608;BME280;45426;44.726;10.390;2023-06-14T07:43:50;100053.81;;;23.05;100.00
59608;BME280;45426;44.726;10.390;2023-06-14T07:46:16;100049.75;;;23.10;100.00
59608;BME280;45426;44.726;10.390;2023-06-14T07:48:41;100058.97;;;23.23;100.00
59608;BME280;45426;44.726;10.390;2023-06-14T07:51:07;100055.84;;;23.21;100.00
59608;BME280;45426;44.726;10.390;2023-06-14T07:53:32;100059.22;;;23.12;100.00
59608;BME280;45426;44.726;10.390;2023-06-14T07:55:58;100054.72;;;23.38;100.00
59608;BME280;45426;44.726;10.390;2023-06-14T07:58:23;100059.69;;;23.83;100.00
59608;BME280;45426;44.726;10.390;2023-06-14T08:00:49;100057.69;;;24.00;100.00
59608;BME280;45426;44.726;10.390;2023-06-14T08:03:15;100056.69;;;23.74;100.00
59608;BME280;45426;44.726;10.390;2023-06-14T08:05:40;100053.75;;;24.31;100.00
59608;BME280;45426;44.726;10.390;2023-06-14T08:08:06;100064.59;;;24.41;100.00
59608;BME280;45426;44.726;10.390;2023-06-14T08:10:31;100068.16;;;24.42;100.00
59608;BME280;45426;44.726;10.390;2023-06-14T08:12:57;100063.16;;;24.83;100.00
59608;BME280;45426;44.726;10.390;2023-06-14T08:15:22;100061.22;;;25.09;100.00
59608;BME280;45426;44.726;10.390;2023-06-14T08:17:48;100066.00;;;25.63;100.00
59608;BME280;45426;44.726;10.390;2023-06-14T08:20:13;100074.25;;;24.20;100.00
59608;BME280;45426;44.726;10.390;2023-06-14T08:22:42;100073.81;;;23.89;100.00
59608;BME280;45426;44.726;10.390;2023-06-14T08:25:08;100069.75;;;25.31;100.00
59608;BME280;45426;44.726;10.390;2023-06-14T08:27:34;100071.34;;;25.03;100.00
59608;BME280;45426;44.726;10.390;2023-06-14T08:29:59;100074.34;;;25.21;100.00
59608;BME280;45426;44.726;10.390;2023-06-14T08:32:25;100070.59;;;27.22;100.00
59608;BME280;45426;44.726;10.390;2023-06-14T08:34:50;100075.34;;;26.56;100.00
59608;BME280;45426;44.726;10.390;2023-06-14T08:37:16;100075.34;;;26.56;100.00
59608;BME280;45426;44.726;10.390;2023-06-14T08:39:42;100071.38;;;27.01;100.00
59608;BME280;45426;44.726;10.390;2023-06-14T08:42:09;100074.94;;;26.79;100.00
59608;BME280;45426;44.726;10.390;2023-06-14T08:44:35;100072.78;;;26.13;100.00
59608;BME280;45426;44.726;10.390;2023-06-14T08:47:00;100082.47;;;26.57;100.00
59608;BME280;45426;44.726;10.390;2023-06-14T08:49:29;100072.59;;;26.43;100.00
59608;BME280;45426;44.726;10.390;2023-06-14T08:52:00;100087.50;;;25.75;100.00
59608;BME280;45426;44.726;10.390;2023-06-14T08:54:27;100090.47;;;25.55;100.00
59608;BME280;45426;44.726;10.390;2023-06-14T08:56:56;100089.91;;;25.73;100.00
59608;BME280;45426;44.726;10.390;2023-06-14T08:59:28;100084.94;;;25.94;100.00
59608;BME280;45426;44.726;10.390;2023-06-14T09:01:54;100087.00;;;26.28;100.00
59608;BME280;45426;44.726;10.390;2023-06-14T09:04:23;100082.25;;;26.03;100.00
59608;BME280;45426;44.726;10.390;2023-06-14T09:06:56;100078.88;;;26.69;100.00
59608;BME280;45426;44.726;10.390;2023-06-14T09:09:22;100090.41;;;26.80;100.00
59608;BME280;45426;44.726;10.390;2023-06-14T09:11:51;100091.03;;;25.08;100.00
59608;BME280;45426;44.726;10.390;2023-06-14T09:14:23;100087.22;;;25.31;100.00
59608;BME280;45426;44.726;10.390;2023-06-14T09:16:52;100086.66;;;25.36;100.00
59608;BME280;45426;44.726;10.390;2023-06-14T09:19:23;100085.94;;;26.48;100.00
59608;BME280;45426;44.726;10.390;2023-06-14T09:21:48;100087.50;;;25.75;100.00
59608;BME280;45426;44.726;10.390;2023-06-14T09:24:14;100077.03;;;26.53;100.00
59608;BME280;45426;44.726;10.390;2023-06-14T09:26:40;100086.03;;;26.92;100.00
59608;BME280;45426;44.726;10.390;2023-06-14T09:29:06;100086.56;;;27.00;100.00
59608;BME280;45426;44.726;10.390;2023-06-14T09:31:32;100077.47;;;26.86;100.00
59608;BME280;45426;44.726;10.390;2023-06-14T09:33:58;100079.31;;;26.32;100.00
59608;BME280;45426;44.726;10.390;2023-06-14T09:36:27;100082.13;;;26.89;100.00
59608;BME280;45426;44.726;10.390;2023-06-14T09:38:57;100076.69;;;27.30;100.00
59608;BME280;45426;44.726;10.390;2023-06-14T09:41:38;100090.44;;;27.24;100.00
59608;BME280;45426;44.726;10.390;2023-06-14T09:44:06;100086.56;;;26.30;100.00
59608;BME280;45426;44.726;10.390;2023-06-14T09:46:32;100078.16;;;26.43;100.00
59608;BME280;45426;44.726;10.390;2023-06-14T09:48:59;100080.75;;;25.47;100.00
59608;BME280;45426;44.726;10.390;2023-06-14T09:51:26;100081.22;;;25.46;100.00
59608;BME280;45426;44.726;10.390;2023-06-14T09:53:52;100069.81;;;26.78;100.00
59608;BME280;45426;44.726;10.390;2023-06-14T09:56:28;100074.69;;;27.62;100.00
59608;BME280;45426;44.726;10.390;2023-06-14T09:58:58;100068.53;;;27.36;100.00
59608;BME280;45426;44.726;10.390;2023-06-14T10:01:25;100074.41;;;27.38;100.00
59608;BME280;45426;44.726;10.390;2023-06-14T10:03:58;100071.13;;;26.64;100.00
59608;BME280;45426;44.726;10.390;2023-06-14T10:06:27;100071.81;;;27.75;100.00
59608;BME280;45426;44.726;10.390;2023-06-14T10:08:56;100073.56;;;27.50;100.00
59608;BME280;45426;44.726;10.390;2023-06-14T10:11:23;100073.69;;;27.24;100.00
59608;BME280;45426;44.726;10.390;2023-06-14T10:13:49;100069.31;;;27.77;100.00
59608;BME280;45426;44.726;10.390;2023-06-14T10:16:31;100077.34;;;27.65;100.00
59608;BME280;45426;44.726;10.390;2023-06-14T10:19:11;100065.41;;;27.34;100.00
59608;BME280;45426;44.726;10.390;2023-06-14T10:24:26;100056.16;;;28.36;100.00
59608;BME280;45426;44.726;10.390;2023-06-14T10:26:57;100052.59;;;28.36;100.00
59608;BME280;45426;44.726;10.390;2023-06-14T10:29:23;100059.06;;;27.74;100.00
59608;BME280;45426;44.726;10.390;2023-06-14T10:31:50;100058.25;;;27.95;100.00
59608;BME280;45426;44.726;10.390;2023-06-14T10:34:27;100056.75;;;26.65;100.00
59608;BME280;45426;44.726;10.390;2023-06-14T10:37:06;100050.34;;;27.62;100.00
59608;BME280;45426;44.726;10.390;2023-06-14T10:39:38;100046.66;;;27.65;100.00
59608;BME280;45426;44.726;10.390;2023-06-14T10:42:05;100050.25;;;26.90;100.00
59608;BME280;45426;44.726;10.390;2023-06-14T10:44:51;100041.63;;;27.20;100.00
59608;BME280;45426;44.726;10.390;2023-06-14T10:47:36;100047.59;;;26.52;100.00
59608;BME280;45426;44.726;10.390;2023-06-14T10:50:07;100052.28;;;26.90;100.00
59608;BME280;45426;44.726;10.390;2023-06-14T10:52:43;100048.50;;;27.06;100.00
59608;BME280;45426;44.726;10.390;2023-06-14T10:55:12;100040.91;;;27.28;100.00
59608;BME280;45426;44.726;10.390;2023-06-14T10:57:54;100031.59;;;28.03;100.00
59608;BME280;45426;44.726;10.390;2023-06-14T11:00:28;100034.59;;;28.74;100.00
59608;BME280;45426;44.726;10.390;2023-06-14T11:11:06;100028.06;;;28.49;100.00
59608;BME280;45426;44.726;10.390;2023-06-14T11:13:31;100033.47;;;26.81;100.00
59608;BME280;45426;44.726;10.390;2023-06-14T11:15:57;100020.53;;;27.41;100.00
59608;BME280;45426;44.726;10.390;2023-06-14T11:18:23;100028.56;;;28.66;100.00
59608;BME280;45426;44.726;10.390;2023-06-14T11:20:54;100016.91;;;28.49;100.00
59608;BME280;45426;44.726;10.390;2023-06-14T11:23:21;100021.38;;;28.19;100.00
59608;BME280;45426;44.726;10.390;2023-06-14T11:25:53;100008.69;;;27.77;100.00
59608;BME280;45426;44.726;10.390;2023-06-14T11:28:18;100006.38;;;27.85;100.00
59608;BME280;45426;44.726;10.390;2023-06-14T11:30:48;100010.66;;;27.99;100.00
59608;BME280;45426;44.726;10.390;2023-06-14T11:33:18;100015.47;;;28.26;100.00
59608;BME280;45426;44.726;10.390;2023-06-14T11:35:46;100009.84;;;29.09;100.00
59608;BME280;45426;44.726;10.390;2023-06-14T11:38:11;100010.50;;;28.12;100.00
59608;BME280;45426;44.726;10.390;2023-06-14T11:40:38;100020.16;;;28.48;100.00
59608;BME280;45426;44.726;10.390;2023-06-14T11:43:03;100011.72;;;28.01;100.00
59608;BME280;45426;44.726;10.390;2023-06-14T11:45:30;100011.75;;;28.20;100.00
59608;BME280;45426;44.726;10.390;2023-06-14T11:47:57;100008.22;;;28.47;100.00
59608;BME280;45426;44.726;10.390;2023-06-14T11:50:23;100000.91;;;28.40;100.00
59608;BME280;45426;44.726;10.390;2023-06-14T11:52:59;100001.44;;;27.80;100.00
59608;BME280;45426;44.726;10.390;2023-06-14T11:55:53;100000.38;;;27.37;100.00
59608;BME280;45426;44.726;10.390;2023-06-14T11:58:18;99999.66;;;28.41;100.00
59608;BME280;45426;44.726;10.390;2023-06-14T12:00:43;99999.78;;;28.01;100.00
59608;BME280;45426;44.726;10.390;2023-06-14T12:03:09;99996.63;;;27.40;100.00
59608;BME280;45426;44.726;10.390;2023-06-14T12:05:35;99994.53;;;27.62;100.00
59608;BME280;45426;44.726;10.390;2023-06-14T12:08:02;99990.03;;;28.24;100.00
59608;BME280;45426;44.726;10.390;2023-06-14T12:10:29;99991.25;;;28.88;100.00
59608;BME280;45426;44.726;10.390;2023-06-14T12:12:58;99988.84;;;29.23;100.00
59608;BME280;45426;44.726;10.390;2023-06-14T12:15:24;99985.06;;;28.46;100.00
59608;BME280;45426;44.726;10.390;2023-06-14T12:17:50;99982.72;;;28.82;100.00
59608;BME280;45426;44.726;10.390;2023-06-14T12:20:16;99978.84;;;28.79;100.00
59608;BME280;45426;44.726;10.390;2023-06-14T12:22:58;99976.06;;;28.42;100.00
59608;BME280;45426;44.726;10.390;2023-06-14T12:25:31;99975.34;;;27.74;100.00
59608;BME280;45426;44.726;10.390;2023-06-14T12:27:58;99975.75;;;28.40;100.00
59608;BME280;45426;44.726;10.390;2023-06-14T12:30:24;99970.72;;;29.00;100.00
59608;BME280;45426;44.726;10.390;2023-06-14T12:32:49;99960.56;;;28.23;100.00
59608;BME280;45426;44.726;10.390;2023-06-14T12:35:17;99961.84;;;27.54;100.00
59608;BME280;45426;44.726;10.390;2023-06-14T12:37:43;99960.88;;;28.16;100.00
59608;BME280;45426;44.726;10.390;2023-06-14T12:40:09;99974.22;;;28.39;100.00
59608;BME280;45426;44.726;10.390;2023-06-14T12:42:36;99971.56;;;28.63;100.00
59608;BME280;45426;44.726;10.390;2023-06-14T12:45:02;99970.81;;;28.54;100.00
59608;BME280;45426;44.726;10.390;2023-06-14T12:47:28;99972.66;;;28.75;100.00